VOBZ/VGA METAR and TAF weather

Enter ICAO airport designator
Station Type Date Time Source
VOBZ METAR 2018/12/10 12:30 UTC NOAA

VOBZ 101230Z 00000KT 4000 HZ FEW020 27/22 Q1011 NOSIG


Station Type Date Time Source
VOBZ Decoded METAR 2018/12/10 12:30 UTC NOAA

Vijayawada / Gannavaram, India (VOBZ) 16-32N 080-48E 24M
Dec 10, 2018 - 07:30 AM EST / 2018.12.10 1230 UTC
Wind: Calm:0
Visibility: 2 mile(s):0
Sky conditions: mostly clear
Weather: haze
Temperature: 80 F (27 C)
Dew Point: 71 F (22 C)
Relative Humidity: 74%
Pressure (altimeter): 29.85 in. Hg (1011 hPa)
ob: VOBZ 101230Z 00000KT 4000 HZ FEW020 27/22 Q1011 NOSIG
cycle: 12

Station Type Date Time Source
VOBZ TAF 2018/11/15 00:00 UTC NOAA

TAF VOBZ 142300Z 1500/1509 000000KT 1500 BR FEW020
BECMG 1504/1506 09008KT 6000 SCT020


Example: see airport list